Time;durP1;ratioP1;P1;durP2;ratioP2;P2;SDS_P1;SDS_P2;PMS_P1;PMS_P2;Temp;Humidity;BMP_temperature;BMP_pressure;BME280_temperature;BME280_humidity;BME280_pressure;Samples;Min_cycle;Max_cycle;Signal;HPM_P1;HPM_P2
2023/01/01 00:00:47;;;;;;;0.00;0.00;;;14.40;99.90;;;;;;7388409;19;20159;-68
2023/01/01 00:03:16;;;;;;;0.00;0.00;;;14.40;99.90;;;;;;7387227;19;20781;-67
2023/01/01 00:05:44;;;;;;;0.00;0.00;;;14.30;99.90;;;;;;7386939;19;20157;-68
2023/01/01 00:08:13;;;;;;;0.00;0.00;;;14.30;99.90;;;;;;7387884;19;20228;-67
2023/01/01 00:10:41;;;;;;;0.00;0.00;;;14.20;99.90;;;;;;7384586;19;20153;-68
2023/01/01 00:13:10;;;;;;;0.00;0.00;;;14.20;99.90;;;;;;7389116;19;20141;-67
2023/01/01 00:15:41;;;;;;;0.00;0.00;;;14.20;99.90;;;;;;7387341;19;20210;-68
2023/01/01 00:18:09;;;;;;;0.00;0.00;;;14.10;99.90;;;;;;7386640;19;20139;-68
2023/01/01 00:20:38;;;;;;;0.00;0.00;;;14.10;99.90;;;;;;7386219;19;20169;-68
2023/01/01 00:23:06;;;;;;;0.00;0.00;;;14.10;99.90;;;;;;7387565;19;20153;-68
2023/01/01 00:25:35;;;;;;;0.00;0.00;;;14.00;99.90;;;;;;7383383;19;20182;-68
2023/01/01 00:28:04;;;;;;;0.00;0.00;;;14.00;99.90;;;;;;7385663;19;20212;-68
2023/01/01 00:30:32;;;;;;;0.00;0.00;;;14.00;99.90;;;;;;7384884;19;20158;-68
2023/01/01 00:33:03;;;;;;;0.00;0.00;;;14.00;99.90;;;;;;7387188;19;20141;-67
2023/01/01 00:35:32;;;;;;;0.00;0.00;;;13.90;99.90;;;;;;7386877;19;20224;-68
2023/01/01 00:38:00;;;;;;;0.00;0.00;;;13.90;99.90;;;;;;7387508;19;20153;-68
2023/01/01 00:40:29;;;;;;;0.00;0.00;;;13.90;99.90;;;;;;7386819;19;20211;-68
2023/01/01 00:42:57;;;;;;;0.00;0.00;;;13.90;99.90;;;;;;7387867;19;20217;-68
2023/01/01 00:45:26;;;;;;;0.00;0.00;;;13.90;99.90;;;;;;7384438;19;20144;-68
2023/01/01 00:47:56;;;;;;;0.00;0.00;;;13.90;99.90;;;;;;7387496;19;20144;-68
2023/01/01 00:50:27;;;;;;;0.00;0.00;;;13.90;99.90;;;;;;7385824;19;20137;-68
2023/01/01 00:52:55;;;;;;;0.00;0.00;;;13.90;99.90;;;;;;7385734;19;20166;-68
2023/01/01 00:55:24;;;;;;;0.00;0.00;;;13.80;99.90;;;;;;7385392;19;20155;-68
2023/01/01 00:57:52;;;;;;;0.00;0.00;;;13.80;99.90;;;;;;7385148;19;20204;-68
2023/01/01 01:00:22;;;;;;;0.00;0.00;;;13.80;99.90;;;;;;7385978;19;20158;-69
2023/01/01 01:02:50;;;;;;;0.00;0.00;;;13.80;99.90;;;;;;7385982;19;20144;-68
2023/01/01 01:05:21;;;;;;;0.00;0.00;;;13.80;99.90;;;;;;7384711;19;20153;-67
2023/01/01 01:07:52;;;;;;;0.00;0.00;;;13.80;99.90;;;;;;7384972;19;20228;-67
2023/01/01 01:10:21;;;;;;;0.00;0.00;;;13.90;99.90;;;;;;7384145;19;20139;-67
2023/01/01 01:12:49;;;;;;;0.00;0.00;;;13.90;99.90;;;;;;7386176;19;20170;-68
2023/01/01 01:15:18;;;;;;;0.00;0.00;;;13.90;99.90;;;;;;7383985;19;20156;-67
2023/01/01 01:17:47;;;;;;;0.00;0.00;;;13.90;99.90;;;;;;7381884;19;20182;-67
2023/01/01 01:20:15;;;;;;;0.00;0.00;;;14.00;99.90;;;;;;7385994;19;20240;-67
2023/01/01 01:22:44;;;;;;;0.00;0.00;;;14.10;99.90;;;;;;7385949;19;20145;-67
2023/01/01 01:25:15;;;;;;;0.00;0.00;;;14.10;99.90;;;;;;7378309;19;20160;-69
2023/01/01 01:27:44;;;;;;;0.00;0.00;;;14.20;99.90;;;;;;7383839;19;20171;-67
2023/01/01 01:30:13;;;;;;;0.00;0.00;;;14.20;99.90;;;;;;7383398;19;20153;-67
2023/01/01 01:32:41;;;;;;;0.00;0.00;;;14.30;99.90;;;;;;7384335;19;20152;-67
2023/01/01 01:35:11;;;;;;;0.00;0.00;;;14.40;99.90;;;;;;7384841;19;20141;-67
2023/01/01 01:37:39;;;;;;;0.00;0.00;;;14.40;99.90;;;;;;7382956;19;20155;-69
2023/01/01 01:40:11;;;;;;;0.00;0.00;;;14.50;99.90;;;;;;7383998;19;20216;-67
2023/01/01 01:42:42;;;;;;;0.00;0.00;;;14.50;99.90;;;;;;7382665;19;20139;-67
2023/01/01 01:45:12;;;;;;;0.00;0.00;;;14.50;99.90;;;;;;7383240;19;20216;-67
2023/01/01 01:47:48;;;;;;;0.00;0.00;;;14.40;99.90;;;;;;7383086;19;20815;-67
2023/01/01 01:50:21;;;;;;;0.00;0.00;;;14.40;99.90;;;;;;7383158;19;20599;-68
2023/01/01 01:53:01;;;;;;;0.00;0.00;;;14.40;99.90;;;;;;7383236;19;20488;-68
2023/01/01 01:55:33;;;;;;;0.00;0.00;;;14.40;99.90;;;;;;7384301;19;20845;-68
2023/01/01 01:58:05;;;;;;;0.00;0.00;;;14.30;99.90;;;;;;7388960;19;20181;-67
2023/01/01 02:00:34;;;;;;;0.00;0.00;;;14.30;99.90;;;;;;7392306;19;20137;-66
2023/01/01 02:03:07;;;;;;;0.00;0.00;;;14.30;99.90;;;;;;7390893;19;20188;-66
2023/01/01 02:05:37;;;;;;;0.00;0.00;;;14.30;99.90;;;;;;7388568;19;20161;-66
2023/01/01 02:08:07;;;;;;;0.00;0.00;;;14.20;99.90;;;;;;7391606;19;20137;-67
2023/01/01 02:10:36;;;;;;;0.00;0.00;;;14.20;99.90;;;;;;7390423;19;20140;-66
2023/01/01 02:13:07;;;;;;;0.00;0.00;;;14.20;99.90;;;;;;7392493;19;20132;-67
2023/01/01 02:15:52;;;;;;;0.00;0.00;;;14.20;99.90;;;;;;7390600;19;20162;-66
2023/01/01 02:18:26;;;;;;;0.00;0.00;;;14.10;99.90;;;;;;7392620;19;20183;-66
2023/01/01 02:21:00;;;;;;;0.00;0.00;;;14.10;99.90;;;;;;7391484;19;20170;-66
2023/01/01 02:23:59;;;;;;;0.00;0.00;;;14.00;99.90;;;;;;7391597;19;20140;-66
2023/01/01 02:26:41;;;;;;;0.00;0.00;;;14.00;99.90;;;;;;7384164;19;20172;-67
2023/01/01 02:29:32;;;;;;;0.00;0.00;;;14.00;99.90;;;;;;7387803;19;20144;-66
2023/01/01 02:32:04;;;;;;;0.00;0.00;;;13.90;99.90;;;;;;7387827;19;20148;-67
2023/01/01 02:34:37;;;;;;;0.00;0.00;;;13.90;99.90;;;;;;7390342;19;20196;-67
2023/01/01 02:37:10;;;;;;;0.00;0.00;;;13.90;99.90;;;;;;7386663;19;20176;-68
2023/01/01 02:39:44;;;;;;;0.00;0.00;;;13.90;99.90;;;;;;7389920;19;20141;-67
2023/01/01 02:42:13;;;;;;;0.00;0.00;;;13.80;99.90;;;;;;7389986;19;20164;-67
2023/01/01 02:44:47;;;;;;;0.00;0.00;;;13.80;99.90;;;;;;7390089;19;20137;-66
2023/01/01 02:47:19;;;;;;;0.00;0.00;;;13.80;99.90;;;;;;7388124;19;20711;-67
2023/01/01 02:49:58;;;;;;;0.00;0.00;;;13.70;99.90;;;;;;7391106;19;20235;-70
2023/01/01 02:52:47;;;;;;;0.00;0.00;;;13.70;99.90;;;;;;7389625;19;20228;-67
2023/01/01 02:55:32;;;;;;;0.00;0.00;;;13.70;99.90;;;;;;7389477;19;20230;-67
2023/01/01 03:00:18;;;;;;;0.00;0.00;;;13.70;99.90;;;;;;7388462;19;20144;-69
2023/01/01 03:01:08;;;;;;;0.00;0.00;;;13.70;99.90;;;;;;7387353;19;20149;-67
2023/01/01 03:03:44;;;;;;;0.00;0.00;;;13.70;99.90;;;;;;7387991;19;20152;-67
2023/01/01 03:06:25;;;;;;;0.00;0.00;;;13.70;99.90;;;;;;7387958;19;20228;-67
2023/01/01 03:09:02;;;;;;;0.00;0.00;;;13.70;99.90;;;;;;7388092;19;20215;-67
2023/01/01 03:11:38;;;;;;;0.00;0.00;;;13.70;99.90;;;;;;7386680;19;20159;-68
2023/01/01 03:14:14;;;;;;;0.00;0.00;;;13.70;99.90;;;;;;7386175;19;20211;-68
2023/01/01 03:16:49;;;;;;;0.00;0.00;;;13.70;99.90;;;;;;7386839;19;20180;-68
2023/01/01 03:19:20;;;;;;;0.00;0.00;;;13.70;99.90;;;;;;7387225;19;20160;-67
2023/01/01 03:21:53;;;;;;;0.00;0.00;;;13.70;99.90;;;;;;7383080;19;20179;-68
2023/01/01 03:24:25;;;;;;;0.00;0.00;;;13.70;99.90;;;;;;7386175;19;20152;-68
2023/01/01 03:26:58;;;;;;;0.00;0.00;;;13.70;99.90;;;;;;7385985;19;20209;-68
2023/01/01 03:29:32;;;;;;;0.00;0.00;;;13.70;99.90;;;;;;7388322;19;20157;-68
2023/01/01 03:32:07;;;;;;;0.00;0.00;;;13.70;99.90;;;;;;7387674;19;20139;-68
2023/01/01 03:34:40;;;;;;;0.00;0.00;;;13.80;99.90;;;;;;7389106;19;20137;-68
2023/01/01 03:37:12;;;;;;;0.00;0.00;;;13.80;99.90;;;;;;7384979;19;20176;-68
2023/01/01 03:39:46;;;;;;;0.00;0.00;;;13.80;99.90;;;;;;7388498;19;20153;-68
2023/01/01 03:42:29;;;;;;;0.00;0.00;;;13.80;99.90;;;;;;7386878;19;20140;-68
2023/01/01 03:45:03;;;;;;;0.00;0.00;;;13.80;99.90;;;;;;7388637;19;20132;-68
2023/01/01 03:47:34;;;;;;;0.00;0.00;;;13.80;99.90;;;;;;7386879;19;20164;-68
2023/01/01 03:50:06;;;;;;;0.00;0.00;;;13.80;99.90;;;;;;7387330;19;20144;-68
2023/01/01 03:52:57;;;;;;;;;;;;;;;;;;;;;
2023/01/01 03:55:34;;;;;;;0.00;0.00;;;13.90;99.90;;;;;;7385677;19;20157;-69
2023/01/01 03:58:12;;;;;;;0.00;0.00;;;13.90;99.90;;;;;;7385132;19;20148;-69
2023/01/01 04:00:47;;;;;;;0.00;0.00;;;13.90;99.90;;;;;;7386762;19;20167;-67
2023/01/01 04:03:23;;;;;;;0.00;0.00;;;13.90;99.90;;;;;;7388150;19;20136;-67
2023/01/01 04:05:52;;;;;;;0.00;0.00;;;14.00;99.90;;;;;;7386256;19;20202;-67
2023/01/01 04:08:21;;;;;;;0.00;0.00;;;13.90;99.90;;;;;;7386083;19;20160;-67
2023/01/01 04:10:54;;;;;;;0.00;0.00;;;13.90;99.90;;;;;;7387601;19;20165;-67
2023/01/01 04:13:23;;;;;;;0.00;0.00;;;13.90;99.90;;;;;;7388562;19;20153;-68
2023/01/01 04:15:52;;;;;;;0.00;0.00;;;13.80;99.90;;;;;;7385941;19;20155;-67
2023/01/01 04:18:23;;;;;;;0.00;0.00;;;13.80;99.90;;;;;;7386585;19;20149;-67
2023/01/01 04:20:52;;;;;;;0.00;0.00;;;13.80;99.90;;;;;;7384244;19;20136;-67
2023/01/01 04:23:20;;;;;;;0.00;0.00;;;13.80;99.90;;;;;;7387590;19;20602;-67
2023/01/01 04:25:49;;;;;;;0.00;0.00;;;13.80;99.90;;;;;;7385641;19;20149;-67
2023/01/01 04:28:19;;;;;;;0.00;0.00;;;13.80;99.90;;;;;;7388519;19;20143;-68
2023/01/01 04:30:48;;;;;;;0.00;0.00;;;13.80;99.90;;;;;;7384482;19;20137;-68
2023/01/01 04:33:17;;;;;;;0.00;0.00;;;13.80;99.90;;;;;;7385268;19;20170;-67
2023/01/01 04:35:49;;;;;;;0.00;0.00;;;13.80;99.90;;;;;;7384056;19;20180;-68
2023/01/01 04:38:17;;;;;;;0.00;0.00;;;13.80;99.90;;;;;;7383569;19;20159;-68
2023/01/01 04:40:46;;;;;;;0.00;0.00;;;13.70;99.90;;;;;;7384908;19;20156;-68
2023/01/01 04:43:14;;;;;;;0.00;0.00;;;13.70;99.90;;;;;;7385963;19;20226;-68
2023/01/01 04:45:43;;;;;;;0.00;0.00;;;13.70;99.90;;;;;;7385479;19;20140;-68
2023/01/01 04:48:11;;;;;;;0.00;0.00;;;13.70;99.90;;;;;;7384303;19;20155;-68
2023/01/01 04:50:40;;;;;;;0.00;0.00;;;13.60;99.90;;;;;;7383902;19;20185;-69
2023/01/01 04:53:11;;;;;;;0.00;0.00;;;13.70;99.90;;;;;;7384727;19;20149;-68
2023/01/01 04:55:40;;;;;;;0.00;0.00;;;13.70;99.90;;;;;;7384760;19;20212;-68
2023/01/01 04:58:08;;;;;;;0.00;0.00;;;13.70;99.90;;;;;;7385640;19;20140;-68
2023/01/01 05:00:37;;;;;;;0.00;0.00;;;13.70;99.90;;;;;;7385353;19;20141;-68
2023/01/01 05:03:05;;;;;;;0.00;0.00;;;13.80;99.90;;;;;;7384171;19;20219;-68
2023/01/01 05:05:34;;;;;;;0.00;0.00;;;13.80;99.90;;;;;;7384714;19;20146;-68
2023/01/01 05:08:02;;;;;;;0.00;0.00;;;13.80;99.90;;;;;;7384882;19;20166;-68
2023/01/01 05:10:34;;;;;;;0.00;0.00;;;13.90;99.90;;;;;;7385491;19;20208;-68
2023/01/01 05:13:02;;;;;;;0.00;0.00;;;13.90;99.90;;;;;;7387071;19;20137;-68
2023/01/01 05:15:32;;;;;;;0.00;0.00;;;13.90;99.90;;;;;;7385436;19;20164;-68
2023/01/01 05:18:00;;;;;;;0.00;0.00;;;13.90;99.90;;;;;;7382098;19;20143;-68
2023/01/01 05:20:29;;;;;;;0.00;0.00;;;14.00;99.90;;;;;;7382198;19;20738;-69
2023/01/01 05:22:57;;;;;;;0.00;0.00;;;13.90;99.90;;;;;;7384450;19;20141;-68
2023/01/01 05:25:26;;;;;;;0.00;0.00;;;14.00;99.90;;;;;;7384479;19;20543;-68
2023/01/01 05:27:58;;;;;;;0.00;0.00;;;14.00;99.90;;;;;;7384593;19;20139;-68
2023/01/01 05:30:26;;;;;;;0.00;0.00;;;14.00;99.90;;;;;;7385198;19;20220;-68
2023/01/01 05:32:55;;;;;;;0.00;0.00;;;14.00;99.90;;;;;;7379987;19;20153;-69
2023/01/01 05:35:26;;;;;;;0.00;0.00;;;14.00;99.90;;;;;;7382873;19;20145;-68
2023/01/01 05:37:59;;;;;;;0.00;0.00;;;14.00;99.90;;;;;;7383871;19;20177;-67
2023/01/01 05:40:31;;;;;;;0.00;0.00;;;14.00;99.90;;;;;;7382442;19;20169;-69
2023/01/01 05:43:03;;;;;;;0.00;0.00;;;14.00;99.90;;;;;;7381805;19;20156;-70
2023/01/01 05:45:32;;;;;;;0.00;0.00;;;14.00;99.90;;;;;;7384236;19;20133;-68
2023/01/01 05:48:01;;;;;;;0.00;0.00;;;14.00;99.90;;;;;;7384056;19;20204;-68
2023/01/01 05:50:30;;;;;;;0.00;0.00;;;14.00;99.90;;;;;;7384013;19;20149;-68
2023/01/01 05:52:58;;;;;;;0.00;0.00;;;14.00;99.90;;;;;;7381722;19;20157;-68
2023/01/01 05:55:27;;;;;;;0.00;0.00;;;13.90;99.90;;;;;;7382263;19;20184;-68
2023/01/01 05:57:56;;;;;;;0.00;0.00;;;14.00;99.90;;;;;;7384475;19;20141;-68
2023/01/01 06:00:27;;;;;;;0.00;0.00;;;13.90;99.90;;;;;;7380955;19;20133;-67
2023/01/01 06:02:55;;;;;;;0.00;0.00;;;13.90;99.90;;;;;;7383606;19;20144;-68
2023/01/01 06:05:24;;;;;;;0.00;0.00;;;13.80;99.90;;;;;;7381365;19;20168;-67
2023/01/01 06:07:53;;;;;;;0.00;0.00;;;13.80;99.90;;;;;;7382317;19;20160;-68
2023/01/01 06:10:21;;;;;;;0.00;0.00;;;13.80;99.90;;;;;;7381986;19;20159;-67
2023/01/01 06:12:50;;;;;;;0.00;0.00;;;13.80;99.90;;;;;;7382061;19;20185;-69
2023/01/01 06:15:19;;;;;;;0.00;0.00;;;13.80;99.90;;;;;;7382755;19;20152;-68
2023/01/01 06:17:50;;;;;;;0.00;0.00;;;13.80;99.90;;;;;;7382366;19;20201;-70
2023/01/01 06:20:19;;;;;;;0.00;0.00;;;13.70;99.90;;;;;;7383222;19;20147;-68
2023/01/01 06:22:47;;;;;;;0.00;0.00;;;13.70;99.90;;;;;;7384133;19;20162;-68
2023/01/01 06:25:18;;;;;;;0.00;0.00;;;13.70;99.90;;;;;;7383964;19;20170;-67
2023/01/01 06:27:46;;;;;;;0.00;0.00;;;13.70;99.90;;;;;;7379435;19;20184;-68
2023/01/01 06:30:15;;;;;;;0.00;0.00;;;13.70;99.90;;;;;;7383319;19;20176;-68
2023/01/01 06:32:43;;;;;;;0.00;0.00;;;13.70;99.90;;;;;;7381437;19;20145;-67
2023/01/01 06:35:15;;;;;;;0.00;0.00;;;13.70;99.90;;;;;;7383277;19;20133;-67
2023/01/01 06:37:43;;;;;;;0.00;0.00;;;13.70;99.90;;;;;;7381905;19;20224;-67
2023/01/01 06:40:13;;;;;;;0.00;0.00;;;13.70;99.90;;;;;;7383090;19;20163;-68
2023/01/01 06:42:42;;;;;;;0.00;0.00;;;13.70;99.90;;;;;;7382576;19;20174;-68
2023/01/01 06:45:12;;;;;;;0.00;0.00;;;13.70;99.90;;;;;;7384159;19;20173;-68
2023/01/01 06:47:41;;;;;;;0.00;0.00;;;13.80;99.90;;;;;;7386636;19;20211;-68
2023/01/01 06:50:10;;;;;;;0.00;0.00;;;13.80;99.90;;;;;;7388731;19;20240;-67
2023/01/01 06:52:42;;;;;;;0.00;0.00;;;13.80;99.90;;;;;;7387498;19;20671;-68
2023/01/01 06:55:11;;;;;;;0.00;0.00;;;13.80;99.90;;;;;;7387538;19;20153;-67
2023/01/01 06:57:40;;;;;;;0.00;0.00;;;13.80;99.90;;;;;;7386810;19;20248;-67
2023/01/01 07:00:10;;;;;;;0.00;0.00;;;13.80;99.90;;;;;;7389228;19;20135;-67
2023/01/01 07:02:38;;;;;;;0.00;0.00;;;13.90;99.90;;;;;;7390482;19;20149;-67
2023/01/01 07:05:07;;;;;;;0.00;0.00;;;13.80;99.90;;;;;;7389283;19;20133;-67
2023/01/01 07:07:36;;;;;;;0.00;0.00;;;13.90;99.90;;;;;;7387655;19;20149;-68
2023/01/01 07:10:08;;;;;;;0.00;0.00;;;13.90;99.90;;;;;;7390126;19;20215;-67
2023/01/01 07:12:57;;;;;;;0.00;0.00;;;13.90;99.90;;;;;;7386556;19;20177;-66
2023/01/01 07:15:26;;;;;;;0.00;0.00;;;13.90;99.90;;;;;;7385950;19;20171;-67
2023/01/01 07:18:05;;;;;;;0.00;0.00;;;13.90;99.90;;;;;;7387131;19;20619;-66
2023/01/01 07:20:35;;;;;;;0.00;0.00;;;13.90;99.90;;;;;;7386556;19;20296;-70
2023/01/01 07:23:04;;;;;;;0.00;0.00;;;13.90;99.90;;;;;;7387471;19;20156;-69
2023/01/01 07:25:35;;;;;;;0.00;0.00;;;13.90;99.90;;;;;;7388418;19;20137;-67
2023/01/01 07:28:03;;;;;;;0.00;0.00;;;13.90;99.90;;;;;;7387709;19;20150;-67
2023/01/01 07:30:32;;;;;;;0.00;0.00;;;13.90;99.90;;;;;;7381710;19;20159;-67
2023/01/01 07:33:00;;;;;;;0.00;0.00;;;14.00;99.90;;;;;;7381150;19;20223;-67
2023/01/01 07:35:29;;;;;;;0.00;0.00;;;14.00;99.90;;;;;;7387262;19;20201;-67
2023/01/01 07:37:57;;;;;;;0.00;0.00;;;14.00;99.90;;;;;;7388888;19;20137;-67
2023/01/01 07:40:26;;;;;;;0.00;0.00;;;14.00;99.90;;;;;;7388393;19;20145;-67
2023/01/01 07:42:57;;;;;;;0.00;0.00;;;14.00;99.90;;;;;;7388564;19;20205;-68
2023/01/01 07:45:26;;;;;;;0.00;0.00;;;14.00;99.90;;;;;;7386173;19;20188;-67
2023/01/01 07:47:56;;;;;;;0.00;0.00;;;14.00;99.90;;;;;;7388365;19;20155;-67
2023/01/01 07:50:27;;;;;;;0.00;0.00;;;14.00;99.90;;;;;;7387028;19;20157;-67
2023/01/01 07:52:58;;;;;;;0.00;0.00;;;14.00;99.90;;;;;;7385604;19;20619;-67
2023/01/01 07:55:27;;;;;;;0.00;0.00;;;13.90;99.90;;;;;;7386524;19;20136;-68
2023/01/01 07:57:58;;;;;;;0.00;0.00;;;13.90;99.90;;;;;;7388538;19;20133;-66
2023/01/01 08:00:27;;;;;;;0.00;0.00;;;13.90;99.90;;;;;;7386135;19;20690;-68
2023/01/01 08:02:55;;;;;;;0.00;0.00;;;13.90;99.90;;;;;;7388741;19;20200;-67
2023/01/01 08:05:24;;;;;;;0.00;0.00;;;13.90;99.90;;;;;;7384798;19;20157;-67
2023/01/01 08:07:53;;;;;;;0.00;0.00;;;13.80;99.90;;;;;;7387765;19;20135;-67
2023/01/01 08:10:22;;;;;;;0.00;0.00;;;13.80;99.90;;;;;;7387176;19;20147;-67
2023/01/01 08:12:51;;;;;;;0.00;0.00;;;13.80;99.90;;;;;;7384452;19;20149;-67
2023/01/01 08:15:22;;;;;;;0.00;0.00;;;13.80;99.90;;;;;;7386754;19;20243;-68
2023/01/01 08:17:50;;;;;;;0.00;0.00;;;13.80;99.90;;;;;;7387149;19;20137;-67
2023/01/01 08:20:19;;;;;;;0.00;0.00;;;13.80;99.90;;;;;;7385167;19;20133;-67
2023/01/01 08:22:48;;;;;;;0.00;0.00;;;13.80;99.90;;;;;;7383850;19;20152;-67
2023/01/01 08:25:16;;;;;;;0.00;0.00;;;13.80;99.90;;;;;;7384376;19;20156;-67
2023/01/01 08:27:45;;;;;;;0.00;0.00;;;13.80;99.90;;;;;;7382625;19;20191;-67
2023/01/01 08:30:16;;;;;;;0.00;0.00;;;13.80;99.90;;;;;;7386331;19;20145;-68
2023/01/01 08:32:47;;;;;;;0.00;0.00;;;13.80;99.90;;;;;;7385864;19;20140;-67
2023/01/01 08:35:16;;;;;;;0.00;0.00;;;13.80;99.90;;;;;;7385462;19;20153;-67
2023/01/01 08:37:45;;;;;;;0.00;0.00;;;13.80;99.90;;;;;;7384078;19;20153;-67
2023/01/01 08:40:22;;;;;;;0.00;0.00;;;13.80;99.90;;;;;;7383253;19;20180;-69
2023/01/01 08:42:54;;;;;;;0.00;0.00;;;13.80;99.90;;;;;;7384025;19;20151;-68
2023/01/01 08:45:24;;;;;;;0.00;0.00;;;13.90;99.90;;;;;;7381832;19;20183;-67
2023/01/01 08:47:56;;;;;;;0.00;0.00;;;13.90;99.90;;;;;;7384462;19;20157;-67
2023/01/01 08:50:32;;;;;;;0.00;0.00;;;14.00;99.90;;;;;;7382332;19;20153;-67
2023/01/01 08:53:02;;;;;;;0.00;0.00;;;14.00;99.90;;;;;;7381975;19;20157;-67
2023/01/01 08:55:33;;;;;;;0.00;0.00;;;14.00;99.90;;;;;;7378261;19;20159;-67
2023/01/01 08:58:02;;;;;;;0.00;0.00;;;14.10;99.90;;;;;;7382751;19;20136;-67
2023/01/01 09:00:30;;;;;;;0.00;0.00;;;14.10;99.90;;;;;;7380715;19;20148;-68
2023/01/01 09:03:01;;;;;;;0.00;0.00;;;14.20;99.90;;;;;;7381305;19;20147;-68
2023/01/01 09:05:30;;;;;;;0.00;0.00;;;14.30;99.90;;;;;;7382145;19;20141;-67
2023/01/01 09:07:58;;;;;;;0.00;0.00;;;14.30;99.90;;;;;;7384758;19;20154;-68
2023/01/01 09:10:27;;;;;;;0.00;0.00;;;14.30;99.90;;;;;;7384523;19;20156;-68
2023/01/01 09:12:55;;;;;;;0.00;0.00;;;14.40;99.90;;;;;;7383954;19;20132;-67
2023/01/01 09:15:24;;;;;;;0.00;0.00;;;14.40;99.90;;;;;;7384743;19;20133;-69
2023/01/01 09:17:53;;;;;;;0.00;0.00;;;14.40;99.90;;;;;;7386541;19;20129;-68
2023/01/01 09:20:24;;;;;;;0.00;0.00;;;14.30;99.90;;;;;;7384432;19;20196;-67
2023/01/01 09:22:53;;;;;;;0.00;0.00;;;14.30;99.90;;;;;;7375940;19;20143;-68
2023/01/01 09:25:21;;;;;;;0.00;0.00;;;14.30;99.90;;;;;;7384011;19;20129;-68
2023/01/01 09:27:50;;;;;;;0.00;0.00;;;14.30;99.90;;;;;;7381349;19;20183;-68
2023/01/01 09:30:18;;;;;;;0.00;0.00;;;14.40;99.90;;;;;;7384201;19;20178;-67
2023/01/01 09:32:47;;;;;;;0.00;0.00;;;14.40;99.90;;;;;;7383549;19;20145;-67
2023/01/01 09:35:15;;;;;;;0.00;0.00;;;14.40;99.90;;;;;;7384908;19;20140;-68
2023/01/01 09:37:47;;;;;;;0.00;0.00;;;14.50;99.90;;;;;;7381585;19;20180;-68
2023/01/01 09:40:27;;;;;;;0.00;0.00;;;14.50;99.90;;;;;;7386398;19;20545;-68
2023/01/01 09:43:07;;;;;;;0.00;0.00;;;14.60;99.90;;;;;;7382409;19;20153;-67
2023/01/01 09:45:41;;;;;;;0.00;0.00;;;14.60;99.90;;;;;;7381922;19;20192;-67
2023/01/01 09:48:15;;;;;;;0.00;0.00;;;14.70;99.90;;;;;;7383832;19;20145;-68
2023/01/01 09:50:45;;;;;;;0.00;0.00;;;14.70;99.90;;;;;;7384195;19;20141;-68
2023/01/01 09:53:21;;;;;;;0.00;0.00;;;14.80;99.90;;;;;;7380168;19;20160;-67
2023/01/01 09:55:54;;;;;;;0.00;0.00;;;14.80;99.90;;;;;;7383055;19;20154;-68
2023/01/01 09:58:26;;;;;;;0.00;0.00;;;14.80;99.90;;;;;;7384388;19;20141;-67
2023/01/01 10:00:56;;;;;;;0.00;0.00;;;14.80;99.90;;;;;;7381524;19;20156;-67
2023/01/01 10:03:36;;;;;;;0.00;0.00;;;14.80;99.90;;;;;;7381067;19;20156;-67
2023/01/01 10:06:17;;;;;;;0.00;0.00;;;14.70;99.90;;;;;;7383104;19;20148;-68
2023/01/01 10:09:01;;;;;;;0.00;0.00;;;14.70;99.90;;;;;;7382512;19;20160;-67
2023/01/01 10:11:38;;;;;;;0.00;0.00;;;14.70;99.90;;;;;;7381961;19;20155;-68
2023/01/01 10:14:15;;;;;;;0.00;0.00;;;14.70;99.90;;;;;;7379783;19;20181;-67
2023/01/01 10:16:47;;;;;;;0.00;0.00;;;14.70;99.90;;;;;;7380443;19;20180;-67
2023/01/01 10:19:30;;;;;;;0.00;0.00;;;14.60;99.90;;;;;;7388664;19;20141;-67
2023/01/01 10:22:03;;;;;;;0.00;0.00;;;14.60;99.90;;;;;;7392262;19;20141;-68
2023/01/01 10:24:47;;;;;;;0.00;0.00;;;14.70;99.90;;;;;;7384642;19;20137;-67
2023/01/01 10:27:29;;;;;;;0.00;0.00;;;14.70;99.90;;;;;;7387211;19;20183;-68
2023/01/01 10:30:00;;;;;;;0.00;0.00;;;14.70;99.90;;;;;;7389324;19;20186;-67
2023/01/01 10:32:32;;;;;;;0.00;0.00;;;14.80;99.90;;;;;;7391498;19;20217;-68
2023/01/01 10:35:02;;;;;;;0.00;0.00;;;14.80;99.90;;;;;;7388726;19;20166;-68
2023/01/01 10:37:37;;;;;;;0.00;0.00;;;14.80;99.90;;;;;;7388941;19;20162;-67
2023/01/01 10:40:17;;;;;;;0.00;0.00;;;14.90;99.90;;;;;;7389180;19;20148;-67
2023/01/01 10:42:51;;;;;;;0.00;0.00;;;14.90;99.90;;;;;;7390379;19;20137;-67
2023/01/01 10:45:25;;;;;;;0.00;0.00;;;14.90;99.90;;;;;;7389436;19;20141;-67
2023/01/01 10:48:19;;;;;;;0.00;0.00;;;14.90;99.90;;;;;;7387918;19;20145;-68
2023/01/01 10:50:51;;;;;;;0.00;0.00;;;14.90;99.90;;;;;;7382392;19;20181;-68
2023/01/01 10:53:26;;;;;;;0.00;0.00;;;14.90;99.90;;;;;;7386074;19;20156;-67
2023/01/01 10:56:07;;;;;;;0.00;0.00;;;14.90;99.90;;;;;;7387436;19;20195;-68
2023/01/01 10:58:39;;;;;;;0.00;0.00;;;14.90;99.90;;;;;;7386438;19;20128;-67
2023/01/01 11:01:09;;;;;;;0.00;0.00;;;15.00;99.90;;;;;;7386186;19;20158;-67
2023/01/01 11:03:38;;;;;;;0.00;0.00;;;15.00;99.90;;;;;;7387238;19;20160;-67
2023/01/01 11:06:20;;;;;;;0.00;0.00;;;15.10;99.90;;;;;;7385583;19;20232;-69
2023/01/01 11:08:51;;;;;;;0.00;0.00;;;15.10;99.90;;;;;;7387129;19;20160;-67
2023/01/01 11:11:29;;;;;;;0.00;0.00;;;15.20;99.90;;;;;;7387461;19;20152;-67
2023/01/01 11:14:02;;;;;;;0.00;0.00;;;15.20;99.90;;;;;;7380910;19;20192;-67
2023/01/01 11:16:31;;;;;;;0.00;0.00;;;15.20;99.90;;;;;;7383460;19;20184;-68
2023/01/01 11:19:05;;;;;;;0.00;0.00;;;15.20;99.90;;;;;;7387482;19;20156;-67
2023/01/01 11:21:36;;;;;;;0.00;0.00;;;15.20;99.90;;;;;;7386892;19;20149;-67
2023/01/01 11:24:21;;;;;;;0.00;0.00;;;15.20;99.90;;;;;;7387316;19;20145;-68
2023/01/01 11:26:55;;;;;;;0.00;0.00;;;15.20;99.90;;;;;;7386519;19;20205;-68
2023/01/01 11:29:29;;;;;;;0.00;0.00;;;15.20;99.90;;;;;;7387572;19;20149;-68
2023/01/01 11:32:00;;;;;;;0.00;0.00;;;15.20;99.90;;;;;;7387719;19;20145;-67
2023/01/01 11:34:33;;;;;;;0.00;0.00;;;15.10;99.90;;;;;;7385449;19;20149;-68
2023/01/01 11:37:17;;;;;;;0.00;0.00;;;15.10;99.90;;;;;;7385285;19;20543;-67
2023/01/01 11:39:50;;;;;;;0.00;0.00;;;15.10;99.90;;;;;;7387383;19;20204;-67
2023/01/01 11:42:25;;;;;;;0.00;0.00;;;15.10;99.90;;;;;;7387383;19;20136;-66
2023/01/01 11:44:57;;;;;;;0.00;0.00;;;15.10;99.90;;;;;;7385363;19;20155;-68
2023/01/01 11:47:31;;;;;;;0.00;0.00;;;15.10;99.90;;;;;;7385703;19;20655;-66
2023/01/01 11:50:08;;;;;;;0.00;0.00;;;15.00;99.90;;;;;;7385959;19;20166;-67
2023/01/01 11:52:42;;;;;;;0.00;0.00;;;15.00;99.90;;;;;;7389336;19;20133;-67
2023/01/01 11:55:21;;;;;;;0.00;0.00;;;15.00;99.90;;;;;;7381869;19;20208;-68
2023/01/01 11:58:04;;;;;;;0.00;0.00;;;15.00;99.90;;;;;;7384013;19;20183;-67
2023/01/01 12:00:38;;;;;;;0.00;0.00;;;15.00;99.90;;;;;;7386330;19;20129;-67
2023/01/01 12:03:20;;;;;;;0.00;0.00;;;15.00;99.90;;;;;;7384207;19;20161;-66
2023/01/01 12:05:58;;;;;;;0.00;0.00;;;15.00;99.90;;;;;;7386181;19;20160;-67
2023/01/01 12:08:34;;;;;;;0.00;0.00;;;15.00;99.90;;;;;;7386470;19;20140;-68
2023/01/01 12:11:12;;;;;;;0.00;0.00;;;14.90;99.90;;;;;;7387317;19;20132;-65
2023/01/01 12:13:52;;;;;;;0.00;0.00;;;14.90;99.90;;;;;;7387249;19;20144;-67
2023/01/01 12:16:28;;;;;;;0.00;0.00;;;14.90;99.90;;;;;;7383730;19;20186;-67
2023/01/01 12:19:06;;;;;;;0.00;0.00;;;14.90;99.90;;;;;;7385032;19;20177;-68
2023/01/01 12:21:41;;;;;;;0.00;0.00;;;14.90;99.90;;;;;;7387114;19;20144;-67
2023/01/01 12:24:14;;;;;;;0.00;0.00;;;14.90;99.90;;;;;;7383706;19;20196;-67
2023/01/01 12:26:57;;;;;;;0.00;0.00;;;14.90;99.90;;;;;;7385309;19;20145;-67
2023/01/01 12:29:54;;;;;;;0.00;0.00;;;15.00;99.90;;;;;;7381472;19;20164;-67
2023/01/01 12:32:34;;;;;;;0.00;0.00;;;15.00;99.90;;;;;;7384651;19;20158;-68
2023/01/01 12:35:15;;;;;;;0.00;0.00;;;15.00;99.90;;;;;;7381022;19;20156;-68
2023/01/01 12:37:57;;;;;;;0.00;0.00;;;15.00;99.90;;;;;;7381324;19;20183;-68
2023/01/01 12:40:46;;;;;;;0.00;0.00;;;15.00;99.90;;;;;;7383287;19;20152;-67
2023/01/01 12:43:24;;;;;;;0.00;0.00;;;15.10;99.90;;;;;;7381535;19;20149;-68
2023/01/01 12:46:14;;;;;;;0.00;0.00;;;15.00;99.90;;;;;;7384007;19;20187;-69
2023/01/01 12:49:20;;;;;;;0.00;0.00;;;15.10;99.90;;;;;;7384310;19;20149;-67
2023/01/01 12:52:02;;;;;;;0.00;0.00;;;15.10;99.90;;;;;;7381944;19;20183;-68
2023/01/01 12:55:01;;;;;;;0.00;0.00;;;15.10;99.90;;;;;;7382318;19;20163;-68
2023/01/01 12:57:33;;;;;;;0.00;0.00;;;15.10;99.90;;;;;;7376555;19;20193;-67
2023/01/01 13:00:05;;;;;;;0.00;0.00;;;15.10;99.90;;;;;;7383860;19;20166;-67
2023/01/01 13:02:40;;;;;;;0.00;0.00;;;15.10;99.90;;;;;;7382871;19;20627;-69
2023/01/01 13:05:18;;;;;;;0.00;0.00;;;15.10;99.90;;;;;;7384759;19;20156;-67
2023/01/01 13:07:52;;;;;;;0.00;0.00;;;15.10;99.90;;;;;;7382142;19;20156;-68
2023/01/01 13:10:33;;;;;;;0.00;0.00;;;15.10;99.90;;;;;;7384296;19;20220;-67
2023/01/01 13:13:02;;;;;;;0.00;0.00;;;15.10;99.90;;;;;;7381884;19;20182;-67
2023/01/01 13:15:50;;;;;;;0.00;0.00;;;15.00;99.90;;;;;;7382034;19;20208;-67